Latest Weather Observations for Coonamble

IDN60801

Issued at 6:35 pm EDT Saturday 29 November 2014 (issued every 30 minutes, with the page automatically refreshed every 10 minutes)

About weather observations | Map of weather stations | Latest weather observations for NSW | Other Formats
Station Details ID: 051161 Name: COONAMBLE AIRPORT AWS Lat: -30.98 Lon: 148.38 Height: 181.3 m
Data from the previous 72 hours. | See also: Recent months at Coonamble
Date/Time
EDT
Temp
°C
App
Temp
°C
Dew
Point
Rel
Hum
%
Delta-T
°C
Wind Press
QNH
hPa
Press
MSL
hPa
Rain
since 9 am
mm
Dir
 
Spd
km/h
Gust
km/h
Spd
kts
Gust
kts
29/06:30pm 28.7 21.4 8.9 29 11.0 WNW 37 54 20 29 1010.7 1009.9 0.0
29/06:23pm 29.2 23.4 10.8 32 10.6 WNW 32 50 17 27 1010.9 1010.1 0.0
29/06:00pm 29.6 25.3 10.7 31 10.9 WNW 24 35 13 19 1010.6 1009.8 0.0
29/05:30pm 31.9 28.9 7.5 22 13.5 NNE 13 17 7 9 1010.1 1009.3 0.0
29/05:00pm 32.6 28.6 8.1 22 13.7 NE 19 26 10 14 1010.0 1009.2 0.0
29/04:30pm 33.1 30.5 9.2 23 13.6 N 13 24 7 13 1010.4 1009.6 0.0
29/04:00pm 32.6 29.6 9.4 24 13.3 NNE 15 24 8 13 1010.8 1010.0 0.0
29/03:30pm 32.8 28.6 9.6 24 13.3 NNW 22 30 12 16 1011.7 1010.8 0.0
29/03:00pm 30.8 28.4 10.2 28 11.8 N 13 26 7 14 1012.5 1011.7 0.0
29/02:30pm 31.9 29.6 10.6 27 12.4 NNE 13 22 7 12 1013.1 1012.3 0.0
29/02:00pm 30.8 28.3 11.2 30 11.4 N 15 24 8 13 1013.7 1012.9 0.0
29/01:30pm 30.8 27.6 11.2 30 11.4 N 19 32 10 17 1014.3 1013.5 0.0
29/01:00pm 30.7 27.4 11.6 31 11.2 NNE 20 33 11 18 1014.9 1014.1 0.0
29/12:30pm 30.3 27.2 12.2 33 10.7 N 20 28 11 15 1015.5 1014.7 0.0
29/12:00pm 29.6 26.1 12.1 34 10.3 NNE 22 35 12 19 1016.0 1015.2 0.0
29/11:30am 29.0 25.2 12.4 36 9.8 N 24 35 13 19 1016.4 1015.6 0.0
29/11:00am 27.5 23.7 12.3 39 8.9 N 24 37 13 20 1016.8 1016.1 0.0
29/10:30am 28.1 24.0 12.8 38 9.0 N 26 43 14 23 1017.1 1016.4 0.0
29/10:00am 26.2 21.6 12.3 42 8.1 NNE 28 39 15 21 1017.5 1016.7 0.0
29/09:30am 26.0 21.7 12.1 42 8.0 NNE 26 39 14 21 1017.5 1016.7 0.0
29/09:00am 25.0 20.5 12.6 46 7.2 NNE 28 41 15 22 1017.6 1016.8 0.0
29/08:30am 24.0 19.0 12.3 48 6.7 NNE 30 41 16 22 1017.5 1016.7 0.0
29/08:00am 23.7 19.1 12.4 49 6.5 NNE 28 41 15 22 1017.5 1016.7 0.0
29/07:30am 22.8 18.7 12.7 53 5.8 NNE 26 37 14 20 1017.1 1016.4 0.0
29/07:00am 21.8 18.8 12.6 56 5.3 NE 20 32 11 17 1016.9 1016.2 0.0
29/06:30am 21.1 18.7 12.8 59 4.8 NE 17 22 9 12 1016.8 1016.1 0.0
29/06:00am 20.6 18.6 12.6 60 4.5 NE 15 20 8 11 1016.7 1016.0 0.0
29/05:30am 21.0 18.5 12.4 58 4.9 NE 17 26 9 14 1016.4 1015.6 0.0
29/05:00am 21.2 18.8 12.6 58 4.9 NE 17 22 9 12 1016.2 1015.4 0.0
29/04:30am 21.6 19.2 12.7 57 5.1 NE 17 24 9 13 1016.1 1015.3 0.0
29/04:00am 21.8 19.0 12.6 56 5.3 NE 19 26 10 14 1015.9 1015.1 0.0
29/03:30am 22.1 19.1 12.4 54 5.5 NE 20 28 11 15 1015.8 1015.0 0.0
29/03:00am 22.7 18.9 12.3 52 5.9 NNE 24 33 13 18 1015.9 1015.1 0.0
29/02:30am 23.0 19.3 12.6 52 6.0 NE 24 35 13 19 1015.9 1015.1 0.0
29/02:00am 23.5 20.0 12.2 49 6.5 NE 22 33 12 18 1015.9 1015.1 0.0
29/01:30am 24.1 20.2 12.1 47 6.9 NE 24 32 13 17 1016.0 1015.2 0.0
29/01:00am 24.5 20.0 10.0 40 8.0 NE 24 39 13 21 1016.0 1015.2 0.0
29/12:30am 24.9 19.1 9.6 38 8.4 ENE 30 41 16 22 1015.7 1014.9 0.0
29/12:00am 25.4 18.5 8.8 35 9.0 ENE 35 46 19 25 1015.5 1014.7 0.0
 
Date/Time
EDT
Temp
°C
App
Temp
°C
Dew
Point
Rel
Hum
%
Delta-T
°C
Wind Press
QNH
hPa
Press
MSL
hPa
Rain
since 9 am
mm
Dir
 
Spd
km/h
Gust
km/h
Spd
kts
Gust
kts
28/11:30pm 26.2 20.0 7.7 31 9.9 E 30 43 16 23 1015.2 1014.4 0.0
28/11:00pm 26.6 22.0 8.1 31 10.0 E 22 35 12 19 1015.1 1014.3 0.0
28/10:30pm 27.3 22.9 7.2 28 10.8 E 20 30 11 16 1014.9 1014.1 0.0
28/10:00pm 26.4 23.3 5.4 26 10.9 ESE 11 15 6 8 1014.4 1013.6 0.0
28/09:30pm 26.6 23.8 5.0 25 11.1 SSE 9 11 5 6 1014.1 1013.3 0.0
28/09:00pm 26.0 23.1 4.5 25 10.9 SSE 9 11 5 6 1013.8 1013.0 0.0
28/08:30pm 28.3 25.4 4.6 22 12.2 SSE 9 9 5 5 1013.6 1012.8 0.0
28/08:00pm 28.7 26.1 4.2 21 12.6 SSE 7 9 4 5 1013.4 1012.6 0.0
28/07:30pm 31.1 28.5 4.0 18 14.1 S 7 9 4 5 1013.1 1012.3 0.0
28/07:00pm 31.9 27.7 3.8 17 14.6 S 15 20 8 11 1012.9 1012.1 0.0
28/06:30pm 32.3 29.1 3.3 16 15.0 S 9 15 5 8 1012.9 1012.1 0.0
28/06:00pm 32.7 29.2 3.6 16 15.1 S 11 20 6 11 1012.9 1012.1 0.0
28/05:30pm 32.1 29.1 4.0 17 14.7 SSE 9 19 5 10 1013.1 1012.3 0.0
28/05:00pm 33.4 30.6 5.0 17 15.2 E 9 15 5 8 1013.3 1012.5 0.0
28/04:30pm 32.7 28.8 5.3 18 14.7 E 15 19 8 10 1013.7 1012.9 0.0
28/04:00pm 32.1 29.9 7.7 22 13.5 NNW 9 13 5 7 1014.1 1013.3 0.0
28/03:30pm 31.1 28.7 6.9 22 13.2 E 9 19 5 10 1014.5 1013.7 0.0
28/03:00pm 32.3 29.7 7.9 22 13.6 WNW 11 20 6 11 1014.9 1014.1 0.0
28/02:30pm 31.0 28.0 7.5 23 12.9 NE 13 22 7 12 1015.5 1014.7 0.0
28/02:00pm 31.6 29.5 9.8 26 12.5 E 11 19 6 10 1016.1 1015.3 0.0
28/01:30pm 29.6 27.4 9.2 28 11.4 NNE 11 19 6 10 1016.6 1015.9 0.0
28/01:00pm 31.7 29.9 11.0 28 12.1 NE 11 32 6 17 1017.1 1016.4 0.0
28/12:30pm 30.0 28.1 10.5 30 11.2 NNW 11 19 6 10 1017.8 1017.0 0.0
28/12:00pm 28.8 25.8 10.5 32 10.4 N 17 24 9 13 1018.3 1017.5 0.0
28/11:30am 28.1 24.4 10.3 33 10.1 NE 20 30 11 16 1018.5 1017.7 0.0
28/11:00am 27.0 23.6 10.7 36 9.2 N 19 32 10 17 1018.8 1018.0 0.0
28/10:30am 26.6 23.4 9.9 35 9.3 ENE 17 28 9 15 1018.9 1018.1 0.0
28/10:00am 26.0 21.7 10.6 38 8.7 ENE 24 32 13 17 1019.0 1018.2 0.0
28/09:30am 25.1 20.3 10.2 39 8.3 ENE 26 37 14 20 1019.1 1018.3 0.0
28/09:00am 24.2 19.9 10.8 43 7.5 E 24 33 13 18 1019.2 1018.4 0.0
28/08:30am 23.2 18.3 11.3 47 6.7 E 28 37 15 20 1019.2 1018.4 0.0
28/08:00am 21.4 16.2 11.7 54 5.4 E 30 39 16 21 1019.2 1018.4 0.0
28/07:30am 20.6 15.6 12.1 58 4.8 ENE 30 39 16 21 1018.9 1018.1 0.0
28/07:00am 19.8 16.3 12.3 62 4.2 ENE 22 32 12 17 1018.5 1017.7 0.0
28/06:30am 18.9 16.0 12.2 65 3.8 E 19 26 10 14 1018.1 1017.3 0.0
28/06:00am 18.2 15.7 12.2 68 3.3 E 17 22 9 12 1017.9 1017.1 0.0
28/05:30am 18.1 15.5 12.1 68 3.3 E 17 22 9 12 1017.6 1016.8 0.0
28/05:00am 18.5 16.0 12.3 67 3.5 E 17 28 9 15 1017.2 1016.5 0.0
28/04:30am 18.9 15.8 12.2 65 3.8 E 20 28 11 15 1017.1 1016.4 0.0
28/04:00am 19.2 16.1 12.2 64 3.9 E 20 30 11 16 1016.8 1016.1 0.0
28/03:30am 19.5 16.0 12.3 63 4.1 E 22 28 12 15 1017.0 1016.3 0.0
28/03:00am 19.8 15.9 12.1 61 4.3 E 24 32 13 17 1017.1 1016.4 0.0
28/02:30am 20.3 15.6 12.0 59 4.7 E 28 39 15 21 1017.0 1016.3 0.0
28/02:00am 20.8 15.3 12.0 57 5.0 E 32 44 17 24 1017.1 1016.4 0.0
28/01:30am 21.2 16.7 11.5 54 5.4 E 26 35 14 19 1017.0 1016.3 0.0
28/01:00am 21.7 17.2 11.4 52 5.8 E 26 37 14 20 1017.0 1016.3 0.0
28/12:31am 22.2 17.4 11.6 51 6.0 E 28 46 15 25 1016.9 1016.2 0.0
28/12:30am 22.2 17.0 11.6 51 6.0 E 30 46 16 25 1016.9 1016.2 0.0
28/12:00am 22.7 17.9 11.7 49 6.2 E 28 46 15 25 1016.8 1016.1 0.0
 
Date/Time
EDT
Temp
°C
App
Temp
°C
Dew
Point
Rel
Hum
%
Delta-T
°C
Wind Press
QNH
hPa
Press
MSL
hPa
Rain
since 9 am
mm
Dir
 
Spd
km/h
Gust
km/h
Spd
kts
Gust
kts
27/11:49pm 22.9 17.4 11.9 50 6.3 E 32 50 17 27 1016.8 1016.1 0.0
27/11:30pm 23.3 17.3 12.0 49 6.4 E 35 48 19 26 1016.7 1016.0 0.0
27/11:00pm 24.0 17.7 11.0 44 7.3 E 35 48 19 26 1016.5 1015.7 0.0
27/10:30pm 25.3 19.4 9.2 36 8.8 E 30 39 16 21 1016.1 1015.3 0.0
27/10:00pm 26.8 22.7 8.7 32 9.9 E 20 32 11 17 1015.6 1014.8 0.0
27/09:30pm 27.4 23.4 8.3 30 10.4 ESE 19 24 10 13 1015.2 1014.4 0.0
27/09:00pm 28.1 24.0 7.9 28 11.0 ESE 19 26 10 14 1014.8 1014.0 0.0
27/08:30pm 28.9 24.4 6.9 25 11.8 SSE 20 26 11 14 1014.2 1013.4 0.0
27/08:00pm 29.4 25.6 4.1 20 13.0 SSE 13 17 7 9 1013.9 1013.1 0.0
27/07:30pm 31.2 26.5 3.3 17 14.3 S 17 22 9 12 1013.7 1012.9 0.0
27/07:00pm 31.7 26.6 2.8 16 14.8 S 19 28 10 15 1013.4 1012.6 0.0
27/06:30pm 32.6 26.9 2.6 15 15.3 SSE 22 30 12 16 1013.2 1012.4 0.0
27/06:00pm 33.0 28.1 2.0 14 15.7 SE 17 24 9 13 1013.1 1012.3 0.0
27/05:30pm 33.8 28.4 2.6 14 16.1 S 20 33 11 18 1013.0 1012.2 0.0
27/05:00pm 32.9 27.1 -0.2 12 16.2 S 20 33 11 18 1013.2 1012.4 0.0
27/04:30pm 33.5 27.4 0.2 12 16.5 S 22 32 12 17 1013.4 1012.6 0.0
27/04:12pm 33.2 25.9 0.0 12 16.3 S 28 35 15 19 1013.5 1012.7 0.0
27/04:00pm 32.9 29.3 0.9 13 15.9 SSE 9 15 5 8 1013.6 1012.8 0.0
27/03:30pm 33.1 27.7 1.0 13 16.0 SSE 19 37 10 20 1014.1 1013.3 0.0
27/03:00pm 33.5 27.7 0.2 12 16.5 SW 20 35 11 19 1014.3 1013.5 0.0
27/02:30pm 33.0 27.8 -0.2 12 16.3 S 17 22 9 12 1014.7 1013.9 0.0
27/02:00pm 32.1 26.3 0.2 13 15.6 SSW 20 35 11 19 1015.0 1014.2 0.0
27/01:30pm 32.2 26.7 0.3 13 15.7 S 19 30 10 16 1015.3 1014.5 0.0
27/01:00pm 30.9 25.4 0.3 14 14.9 S 19 30 10 16 1015.7 1014.9 0.0
27/12:30pm 31.8 26.5 2.0 15 15.0 S 19 28 10 15 1015.9 1015.1 0.0
27/12:00pm 30.8 24.3 0.2 14 14.8 SW 24 35 13 19 1016.3 1015.5 0.0
27/11:30am 31.2 26.8 4.9 19 13.9 SSE 17 32 9 17 1016.4 1015.6 0.0
27/11:00am 30.0 23.8 2.3 17 13.9 S 24 32 13 17 1016.8 1016.1 0.0
27/10:30am 28.6 26.8 9.3 30 10.8 S 9 17 5 9 1017.0 1016.3 0.0
27/10:00am 27.5 25.2 11.9 38 9.0 SSE 15 24 8 13 1017.1 1016.4 0.0
27/09:30am 26.0 24.0 12.8 44 7.7 SSE 15 20 8 11 1017.4 1016.6 0.0
27/09:00am 25.0 23.3 12.6 46 7.2 SSE 13 20 7 11 1017.6 1016.8 0.0
27/08:30am 24.2 21.7 12.2 47 6.9 SE 17 26 9 14 1017.5 1016.7 0.0
27/08:00am 22.3 19.1 11.1 49 6.3 SSE 19 28 10 15 1017.2 1016.5 0.0
27/07:30am 20.6 16.7 6.9 41 7.0 S 17 24 9 13 1017.0 1016.3 0.0
27/07:00am 18.3 13.4 2.2 34 7.4 S 17 24 9 13 1016.6 1015.9 0.0
27/06:30am 17.4 12.0 1.0 33 7.3 S 19 24 10 13 1016.2 1015.4 0.0
27/06:00am 16.9 11.3 1.0 34 7.0 S 20 26 11 14 1015.9 1015.1 0.0
27/05:30am 16.4 10.9 0.9 35 6.8 S 19 22 10 12 1015.6 1014.8 0.0
27/05:00am 16.6 11.1 0.3 33 7.1 S 19 22 10 12 1015.4 1014.6 0.0
27/04:30am 17.2 11.7 0.4 32 7.4 S 19 20 10 11 1015.2 1014.4 0.0
27/04:00am 16.9 12.1 0.1 32 7.3 SSW 15 20 8 11 1015.1 1014.3 0.0
27/03:30am 16.4 12.0 0.1 33 7.1 SSW 13 15 7 8 1015.2 1014.4 0.0
27/03:00am 17.4 12.5 -0.3 30 7.7 S 15 17 8 9 1015.2 1014.4 0.0
27/02:30am 18.5 13.2 -0.8 27 8.4 S 17 20 9 11 1015.2 1014.4 0.0
27/02:00am 18.7 13.7 -1.2 26 8.6 S 15 17 8 9 1015.4 1014.6 0.0
27/01:30am 19.5 14.4 -1.6 24 9.1 S 15 17 8 9 1015.7 1014.9 0.0
27/01:00am 20.6 15.1 -1.8 22 9.7 S 17 20 9 11 1015.9 1015.1 0.0
27/12:30am 20.9 15.4 -2.2 21 9.9 S 17 22 9 12 1016.1 1015.3 0.0
27/12:00am 20.3 15.2 -2.1 22 9.6 SSW 15 19 8 10 1016.5 1015.7 0.0
 
Date/Time
EDT
Temp
°C
App
Temp
°C
Dew
Point
Rel
Hum
%
Delta-T
°C
Wind Press
QNH
hPa
Press
MSL
hPa
Rain
since 9 am
mm
Dir
 
Spd
km/h
Gust
km/h
Spd
kts
Gust
kts
26/11:30pm 20.7 15.2 -2.4 21 9.9 SSW 17 19 9 10 1016.5 1015.7 0.0
26/11:00pm 20.7 15.5 -2.4 21 9.9 SSW 15 17 8 9 1016.5 1015.7 0.0
26/10:30pm 21.4 16.6 -2.5 20 10.3 SSW 13 15 7 8 1016.4 1015.6 0.0
26/10:00pm 21.6 17.5 -3.0 19 10.5 SSW 9 11 5 6 1016.3 1015.5 0.0
26/09:30pm 22.5 17.9 -3.7 17 11.1 SSW 11 13 6 7 1016.0 1015.2 0.0
26/09:00pm 23.3 18.0 -3.9 16 11.6 SSW 15 19 8 10 1015.7 1014.9 0.0
26/08:30pm 24.8 20.4 -5.5 13 12.7 SSW 9 13 5 7 1015.2 1014.4 0.0
26/08:00pm 25.9 20.3 -6.8 11 13.5 SSW 15 19 8 10 1015.0 1014.2 0.0
26/07:30pm 28.6 22.0 -8.8 8 15.3 SSW 19 22 10 12 1014.6 1013.8 0.0
26/07:00pm 29.9 22.8 -7.9 8 15.8 SSW 22 28 12 15 1014.2 1013.4 0.0

Other Formats:

Comma delimited format used in spreadsheet applications
http://www.bom.gov.au/fwo/IDN60801/IDN60801.95718.axf

JavaScript Object Notation format (JSON) in row-major order
http://www.bom.gov.au/fwo/IDN60801/IDN60801.95718.json